createdAt,value
2022-09-15T00:01:16.864Z,16.60
2022-09-15T00:03:44.990Z,16.60
2022-09-15T00:06:13.391Z,16.50
2022-09-15T00:08:41.825Z,16.50
2022-09-15T00:11:13.516Z,16.40
2022-09-15T00:13:41.970Z,16.40
2022-09-15T00:16:14.752Z,16.40
2022-09-15T00:18:43.786Z,16.50
2022-09-15T00:21:15.273Z,16.50
2022-09-15T00:23:43.389Z,16.50
2022-09-15T00:26:15.005Z,16.60
2022-09-15T00:28:43.548Z,16.50
2022-09-15T00:31:13.686Z,16.40
2022-09-15T00:33:42.041Z,16.30
2022-09-15T00:36:12.596Z,16.30
2022-09-15T00:38:41.488Z,16.30
2022-09-15T00:41:12.387Z,16.40
2022-09-15T00:43:50.425Z,16.50
2022-09-15T00:46:21.422Z,16.50
2022-09-15T00:48:56.923Z,16.50
2022-09-15T00:51:31.647Z,16.60
2022-09-15T00:54:02.704Z,16.60
2022-09-15T00:56:34.518Z,16.50
2022-09-15T00:59:05.661Z,16.40
2022-09-15T01:01:34.204Z,16.30
2022-09-15T01:04:02.680Z,16.30
2022-09-15T01:06:35.255Z,16.30
2022-09-15T01:09:08.549Z,16.30
2022-09-15T01:11:38.674Z,16.30
2022-09-15T01:14:06.760Z,16.20
2022-09-15T01:16:45.868Z,16.20
2022-09-15T01:19:46.583Z,16.20
2022-09-15T01:22:28.629Z,16.20
2022-09-15T01:25:07.934Z,16.30
2022-09-15T01:28:03.684Z,16.40
2022-09-15T01:30:36.051Z,16.30
2022-09-15T01:33:20.819Z,16.20
2022-09-15T01:36:04.689Z,16.20
2022-09-15T01:38:47.210Z,16.10
2022-09-15T01:41:18.376Z,16.20
2022-09-15T01:43:52.172Z,16.10
2022-09-15T01:46:25.306Z,16.10
2022-09-15T01:48:57.295Z,16.10
2022-09-15T01:51:27.745Z,16.10
2022-09-15T01:53:56.840Z,16.00
2022-09-15T01:56:24.937Z,16.00
2022-09-15T01:58:53.106Z,16.00
2022-09-15T02:01:28.260Z,16.10
2022-09-15T02:04:01.726Z,16.00
2022-09-15T02:06:37.874Z,16.00
2022-09-15T02:09:12.682Z,16.10
2022-09-15T02:11:49.084Z,16.10
2022-09-15T02:14:21.436Z,16.10
2022-09-15T02:16:55.075Z,16.10
2022-09-15T02:19:31.239Z,16.10
2022-09-15T02:22:07.791Z,16.00
2022-09-15T02:24:40.975Z,16.00
2022-09-15T02:27:14.050Z,15.90
2022-09-15T02:29:45.488Z,15.90
2022-09-15T02:32:16.527Z,15.90
2022-09-15T02:34:48.012Z,15.90
2022-09-15T02:37:16.644Z,15.80
2022-09-15T02:39:49.161Z,15.80
2022-09-15T02:42:25.339Z,15.80
2022-09-15T02:44:53.688Z,15.70
2022-09-15T02:47:23.913Z,15.60
2022-09-15T02:49:51.935Z,15.60
2022-09-15T02:52:19.984Z,15.50
2022-09-15T02:54:48.096Z,15.40
2022-09-15T02:57:16.558Z,15.40
2022-09-15T03:00:01.922Z,15.40
2022-09-15T03:02:31.706Z,15.30
2022-09-15T03:05:00.301Z,15.30
2022-09-15T03:07:28.531Z,15.30
2022-09-15T03:09:56.722Z,15.30
2022-09-15T03:12:24.780Z,15.20
2022-09-15T03:14:52.860Z,15.10
2022-09-15T03:17:20.929Z,15.10
2022-09-15T03:19:50.768Z,15.00
2022-09-15T03:22:18.844Z,15.00
2022-09-15T03:24:46.880Z,14.90
2022-09-15T03:27:14.937Z,14.90
2022-09-15T03:29:43.085Z,14.90
2022-09-15T03:32:11.143Z,14.80
2022-09-15T03:34:39.246Z,14.80
2022-09-15T03:37:09.032Z,14.70
2022-09-15T03:39:37.456Z,14.70
2022-09-15T03:42:05.825Z,14.70
2022-09-15T03:44:33.936Z,14.70
2022-09-15T03:47:01.965Z,14.60
2022-09-15T03:49:30.256Z,14.60
2022-09-15T03:51:59.303Z,14.50
2022-09-15T03:54:28.989Z,14.60
2022-09-15T03:56:57.049Z,14.50
2022-09-15T03:59:25.303Z,14.40
2022-09-15T04:01:53.443Z,14.30
2022-09-15T04:04:21.533Z,14.30
2022-09-15T04:06:49.577Z,14.20
2022-09-15T04:09:20.254Z,14.10
2022-09-15T04:11:49.860Z,14.10
2022-09-15T04:14:17.922Z,14.10
2022-09-15T04:16:46.009Z,14.00
2022-09-15T04:19:14.433Z,13.90
2022-09-15T04:21:42.497Z,13.90
2022-09-15T04:24:10.549Z,13.90
2022-09-15T04:26:38.788Z,13.90
2022-09-15T04:29:14.553Z,13.90
2022-09-15T04:31:42.667Z,13.80
2022-09-15T04:34:10.744Z,13.80
2022-09-15T04:36:39.273Z,13.80
2022-09-15T04:39:07.657Z,13.70
2022-09-15T04:41:35.757Z,13.70
2022-09-15T04:44:04.395Z,13.70
2022-09-15T04:46:33.961Z,13.70
2022-09-15T04:49:02.107Z,13.70
2022-09-15T04:51:30.212Z,13.70
2022-09-15T04:53:59.169Z,13.70
2022-09-15T04:56:28.186Z,13.70
2022-09-15T04:59:03.265Z,13.60
2022-09-15T05:01:35.546Z,13.60
2022-09-15T05:04:05.132Z,13.60
2022-09-15T05:06:34.876Z,13.60
2022-09-15T05:09:09.804Z,13.60
2022-09-15T05:11:40.091Z,13.60
2022-09-15T05:14:09.665Z,13.60
2022-09-15T05:16:40.118Z,13.60
2022-09-15T05:19:08.397Z,13.50
2022-09-15T05:21:36.530Z,13.60
2022-09-15T05:24:04.637Z,13.50
2022-09-15T05:26:32.669Z,13.50
2022-09-15T05:29:00.760Z,13.50
2022-09-15T05:31:30.627Z,13.50
2022-09-15T05:34:02.306Z,13.50
2022-09-15T05:36:31.045Z,13.50
2022-09-15T05:38:59.444Z,13.50
2022-09-15T05:41:28.389Z,13.50
2022-09-15T05:44:01.253Z,13.50
2022-09-15T05:46:30.347Z,13.40
2022-09-15T05:49:00.832Z,13.40
2022-09-15T05:51:30.223Z,13.40
2022-09-15T05:53:58.302Z,13.40
2022-09-15T05:56:26.315Z,13.40
2022-09-15T05:58:54.470Z,13.30
2022-09-15T06:01:24.624Z,13.30
2022-09-15T06:03:53.339Z,13.30
2022-09-15T06:06:23.537Z,13.30
2022-09-15T06:08:57.989Z,13.30
2022-09-15T06:11:28.968Z,13.30
2022-09-15T06:13:57.355Z,13.30
2022-09-15T06:16:26.662Z,13.40
2022-09-15T06:18:55.536Z,13.40
2022-09-15T06:21:26.677Z,13.40
2022-09-15T06:23:55.706Z,13.40
2022-09-15T06:26:24.615Z,13.30
2022-09-15T06:28:54.907Z,13.40
2022-09-15T06:31:24.348Z,13.30
2022-09-15T06:33:55.904Z,13.30
2022-09-15T06:36:28.483Z,13.30
2022-09-15T06:38:57.005Z,13.40
2022-09-15T06:41:25.123Z,13.40
2022-09-15T06:43:53.386Z,13.50
2022-09-15T06:46:23.651Z,13.50
2022-09-15T06:48:52.388Z,13.60
2022-09-15T06:51:22.365Z,13.60
2022-09-15T06:53:54.235Z,13.50
2022-09-15T06:56:23.470Z,13.50
2022-09-15T06:58:52.022Z,13.50
2022-09-15T07:01:23.385Z,13.60
2022-09-15T07:03:52.131Z,13.70
2022-09-15T07:06:20.487Z,13.70
2022-09-15T07:08:49.658Z,13.60
2022-09-15T07:11:19.679Z,13.60
2022-09-15T07:13:48.645Z,13.70
2022-09-15T07:16:16.940Z,13.60
2022-09-15T07:18:45.046Z,13.70
2022-09-15T07:21:14.369Z,13.70
2022-09-15T07:23:43.059Z,13.70
2022-09-15T07:26:12.987Z,13.70
2022-09-15T07:28:43.953Z,13.90
2022-09-15T07:31:15.272Z,13.80
2022-09-15T07:33:43.424Z,13.90
2022-09-15T07:36:11.967Z,13.90
2022-09-15T07:38:41.498Z,14.00
2022-09-15T07:41:11.239Z,14.00
2022-09-15T07:43:40.108Z,14.00
2022-09-15T07:46:09.564Z,14.00
2022-09-15T07:48:39.608Z,14.00
2022-09-15T07:51:07.669Z,14.00
2022-09-15T07:53:35.741Z,14.00
2022-09-15T07:56:04.331Z,14.00
2022-09-15T07:58:34.195Z,14.00
2022-09-15T08:01:05.519Z,14.10
2022-09-15T08:03:35.241Z,14.00
2022-09-15T08:06:04.500Z,14.00
2022-09-15T08:08:32.587Z,14.00
2022-09-15T08:11:00.690Z,13.90
2022-09-15T08:13:30.261Z,14.00
2022-09-15T08:15:58.308Z,14.00
2022-09-15T08:18:26.394Z,14.00
2022-09-15T08:20:55.816Z,14.10
2022-09-15T08:23:23.890Z,14.20
2022-09-15T08:25:52.767Z,14.20
2022-09-15T08:28:20.818Z,14.30
2022-09-15T08:30:48.852Z,14.40
2022-09-15T08:33:17.019Z,14.50
2022-09-15T08:35:45.035Z,14.60
2022-09-15T08:38:14.436Z,14.80
2022-09-15T08:40:46.891Z,14.90
2022-09-15T08:43:19.681Z,15.20
2022-09-15T08:45:54.161Z,15.40
2022-09-15T08:48:28.788Z,15.60
2022-09-15T08:51:00.971Z,15.70
2022-09-15T08:53:36.777Z,16.00
2022-09-15T08:56:10.035Z,16.20
2022-09-15T08:58:39.562Z,16.50
2022-09-15T09:01:15.257Z,16.70
2022-09-15T09:04:09.166Z,16.90
2022-09-15T09:06:44.933Z,16.70
2022-09-15T09:09:25.711Z,16.80
2022-09-15T09:12:15.979Z,16.60
2022-09-15T09:15:01.129Z,16.80
2022-09-15T09:17:46.074Z,16.70
2022-09-15T09:20:32.289Z,16.80
2022-09-15T09:23:05.693Z,16.90
2022-09-15T09:25:36.524Z,16.80
2022-09-15T09:28:06.696Z,16.90
2022-09-15T09:30:37.630Z,17.40
2022-09-15T09:33:19.691Z,17.50
2022-09-15T09:35:51.701Z,17.50
2022-09-15T09:38:24.843Z,17.80
2022-09-15T09:40:58.599Z,18.00
2022-09-15T09:43:30.818Z,18.40
2022-09-15T09:45:59.340Z,18.70
2022-09-15T09:48:29.882Z,19.10
2022-09-15T09:50:58.264Z,19.40
2022-09-15T09:53:29.144Z,19.60
2022-09-15T09:56:18.296Z,19.60
2022-09-15T09:58:46.416Z,19.60
2022-09-15T10:01:17.131Z,19.80
2022-09-15T10:03:45.945Z,19.90
2022-09-15T10:06:17.477Z,19.90
2022-09-15T10:08:57.897Z,19.80
2022-09-15T10:11:43.049Z,19.80
2022-09-15T10:14:21.937Z,19.90
2022-09-15T10:17:01.471Z,20.40
2022-09-15T10:19:31.167Z,20.40
2022-09-15T10:22:01.564Z,20.00
2022-09-15T10:24:36.304Z,19.70
2022-09-15T10:27:17.169Z,19.30
2022-09-15T10:29:45.446Z,18.70
2022-09-15T10:32:25.804Z,18.40
2022-09-15T10:35:05.917Z,17.90
2022-09-15T10:37:39.796Z,17.70
2022-09-15T10:40:27.922Z,17.50
2022-09-15T10:43:04.769Z,17.40
2022-09-15T10:45:38.152Z,17.60
2022-09-15T10:48:23.457Z,18.00
2022-09-15T10:50:59.567Z,18.40
2022-09-15T10:53:42.870Z,18.60
2022-09-15T10:56:23.450Z,18.50
2022-09-15T10:59:03.149Z,17.90
2022-09-15T11:01:48.007Z,17.40
2022-09-15T11:04:34.523Z,17.50
2022-09-15T11:07:08.163Z,17.20
2022-09-15T11:09:43.334Z,17.30
2022-09-15T11:12:29.959Z,17.20
2022-09-15T11:15:15.746Z,17.20
2022-09-15T11:17:59.515Z,17.80
2022-09-15T11:20:42.576Z,18.30
2022-09-15T11:23:18.815Z,18.40
2022-09-15T11:25:51.158Z,18.00
2022-09-15T11:28:23.778Z,18.10
2022-09-15T11:31:01.083Z,18.50
2022-09-15T11:33:33.600Z,18.60
2022-09-15T11:36:07.663Z,18.40
2022-09-15T11:38:42.916Z,18.40
2022-09-15T11:41:23.681Z,18.70
2022-09-15T11:44:00.103Z,18.80
2022-09-15T11:46:35.848Z,18.70
2022-09-15T11:49:07.595Z,19.10
2022-09-15T11:51:40.545Z,19.20
2022-09-15T11:54:14.954Z,18.90
2022-09-15T11:56:45.442Z,18.80
2022-09-15T11:59:22.288Z,18.90
2022-09-15T12:01:57.943Z,19.10
2022-09-15T12:04:31.175Z,19.30
2022-09-15T12:07:05.205Z,19.00
2022-09-15T12:09:33.922Z,18.80
2022-09-15T12:12:06.987Z,18.70
2022-09-15T12:14:38.125Z,18.80
2022-09-15T12:17:09.906Z,19.00
2022-09-15T12:19:56.404Z,18.80
2022-09-15T12:22:30.049Z,19.00
2022-09-15T12:25:02.411Z,19.10
2022-09-15T12:27:30.946Z,18.90
2022-09-15T12:30:00.735Z,18.80
2022-09-15T12:32:30.984Z,18.60
2022-09-15T12:35:33.228Z,18.30
2022-09-15T12:38:01.842Z,18.00
2022-09-15T12:40:37.009Z,17.70
2022-09-15T12:43:18.276Z,17.80
2022-09-15T12:45:56.042Z,17.50
2022-09-15T12:48:28.515Z,17.70
2022-09-15T12:50:59.919Z,17.80
2022-09-15T12:53:31.444Z,17.60
2022-09-15T12:56:02.937Z,17.80
2022-09-15T12:58:37.775Z,17.70
2022-09-15T13:01:31.825Z,17.70
2022-09-15T13:04:45.138Z,17.80
2022-09-15T13:07:54.947Z,18.10
2022-09-15T13:10:40.219Z,18.40
2022-09-15T13:13:28.829Z,18.50
2022-09-15T13:16:01.896Z,18.80
2022-09-15T13:18:31.921Z,18.70
2022-09-15T13:21:07.157Z,19.10
2022-09-15T13:23:39.225Z,19.80
2022-09-15T13:26:10.178Z,19.70
2022-09-15T13:28:39.985Z,19.70
2022-09-15T13:31:18.638Z,19.80
2022-09-15T13:40:38.495Z,18.80
2022-09-15T13:43:40.615Z,18.90
2022-09-15T13:46:23.057Z,18.80
2022-09-15T13:49:08.690Z,18.80
2022-09-15T13:51:38.311Z,18.80
2022-09-15T13:54:15.295Z,18.70
2022-09-15T13:56:43.711Z,18.30
2022-09-15T13:59:19.878Z,18.40
2022-09-15T14:01:48.321Z,18.50
2022-09-15T14:04:20.021Z,18.50
2022-09-15T14:06:51.064Z,18.60
2022-09-15T14:09:24.603Z,18.40
2022-09-15T14:11:55.946Z,18.20
2022-09-15T14:14:36.118Z,18.20
2022-09-15T14:17:04.630Z,18.40
2022-09-15T14:19:34.566Z,18.30
2022-09-15T14:22:19.635Z,18.00
2022-09-15T14:24:51.282Z,17.80
2022-09-15T14:27:23.524Z,17.60
2022-09-15T14:29:55.286Z,17.50
2022-09-15T14:32:23.567Z,17.30
2022-09-15T14:34:52.005Z,17.30
2022-09-15T14:37:24.036Z,17.30
2022-09-15T14:39:56.635Z,17.40
2022-09-15T14:42:30.500Z,17.40
2022-09-15T14:48:01.356Z,17.90
2022-09-15T14:50:33.111Z,18.20
2022-09-15T14:53:04.834Z,18.20
2022-09-15T14:55:39.321Z,18.00
2022-09-15T14:58:14.207Z,18.20
2022-09-15T15:00:52.559Z,18.30
2022-09-15T15:03:30.378Z,18.20
2022-09-15T15:06:12.692Z,18.50
2022-09-15T15:08:53.728Z,18.70
2022-09-15T15:11:23.721Z,18.80
2022-09-15T15:13:53.576Z,19.00
2022-09-15T15:16:24.033Z,19.00
2022-09-15T15:18:53.377Z,18.60
2022-09-15T15:21:39.488Z,18.50
2022-09-15T15:24:21.277Z,18.60
2022-09-15T15:26:51.599Z,18.60
2022-09-15T15:29:39.391Z,18.90
2022-09-15T15:32:12.505Z,18.70
2022-09-15T15:34:41.045Z,18.80
2022-09-15T15:37:17.381Z,18.80
2022-09-15T15:39:47.776Z,18.50
2022-09-15T15:42:18.344Z,18.20
2022-09-15T15:45:01.709Z,17.80
2022-09-15T15:47:32.351Z,17.40
2022-09-15T15:50:13.155Z,17.40
2022-09-15T15:52:43.687Z,17.20
2022-09-15T15:55:15.038Z,17.20
2022-09-15T15:57:45.032Z,17.10
2022-09-15T16:00:21.792Z,17.00
2022-09-15T16:02:50.460Z,16.80
2022-09-15T16:05:19.273Z,16.80
2022-09-15T16:07:48.793Z,16.70
2022-09-15T16:10:18.552Z,16.70
2022-09-15T16:12:48.053Z,16.70
2022-09-15T16:15:18.908Z,16.70
2022-09-15T16:17:47.338Z,16.80
2022-09-15T16:20:16.861Z,16.70
2022-09-15T16:22:45.030Z,16.80
2022-09-15T16:25:16.939Z,16.80
2022-09-15T16:27:44.984Z,16.80
2022-09-15T16:30:14.571Z,16.80
2022-09-15T16:32:42.629Z,16.80
2022-09-15T16:35:28.110Z,16.80
2022-09-15T16:37:56.169Z,16.70
2022-09-15T16:40:24.376Z,16.70
2022-09-15T16:42:52.510Z,16.70
2022-09-15T16:45:26.335Z,16.60
2022-09-15T16:47:54.835Z,16.60
2022-09-15T16:50:22.975Z,16.60
2022-09-15T16:52:51.640Z,16.50
2022-09-15T16:55:29.588Z,16.50
2022-09-15T16:57:57.889Z,16.50
2022-09-15T17:00:28.136Z,16.50
2022-09-15T17:02:56.654Z,16.50
2022-09-15T17:05:28.800Z,16.40
2022-09-15T17:07:57.099Z,16.40
2022-09-15T17:10:25.764Z,16.40
2022-09-15T17:12:53.878Z,16.40
2022-09-15T17:15:25.162Z,16.40
2022-09-15T17:17:54.870Z,16.40
2022-09-15T17:20:24.254Z,16.30
2022-09-15T17:22:53.707Z,16.30
2022-09-15T17:25:28.537Z,16.20
2022-09-15T17:27:57.541Z,16.20
2022-09-15T17:30:27.601Z,16.20
2022-09-15T17:33:04.426Z,16.20
2022-09-15T17:35:34.375Z,16.10
2022-09-15T17:38:02.975Z,16.10
2022-09-15T17:40:31.506Z,16.10
2022-09-15T17:43:00.665Z,16.00
2022-09-15T17:45:31.665Z,16.00
2022-09-15T17:47:59.717Z,16.10
2022-09-15T17:50:30.991Z,16.00
2022-09-15T17:52:59.123Z,16.00
2022-09-15T17:55:29.767Z,15.90
2022-09-15T17:57:59.036Z,15.80
2022-09-15T18:00:29.345Z,15.80
2022-09-15T18:02:59.396Z,15.80
2022-09-15T18:05:30.650Z,15.70
2022-09-15T18:08:00.738Z,15.60
2022-09-15T18:10:28.920Z,15.50
2022-09-15T18:12:57.177Z,15.60
2022-09-15T18:15:29.505Z,15.60
2022-09-15T18:17:59.295Z,15.40
2022-09-15T18:20:30.905Z,15.30
2022-09-15T18:23:00.083Z,15.30
2022-09-15T18:25:30.944Z,15.30
2022-09-15T18:27:59.806Z,15.30
2022-09-15T18:30:31.024Z,15.20
2022-09-15T18:32:59.580Z,15.20
2022-09-15T18:35:29.405Z,15.20
2022-09-15T18:37:59.269Z,15.00
2022-09-15T18:40:28.860Z,15.00
2022-09-15T18:42:58.766Z,14.90
2022-09-15T18:45:27.050Z,14.90
2022-09-15T18:47:55.188Z,14.90
2022-09-15T18:50:25.331Z,14.70
2022-09-15T18:52:54.782Z,14.70
2022-09-15T18:55:24.851Z,14.70
2022-09-15T18:57:53.067Z,14.70
2022-09-15T19:00:23.934Z,14.80
2022-09-15T19:02:57.954Z,14.70
2022-09-15T19:05:27.076Z,14.70
2022-09-15T19:07:57.034Z,14.70
2022-09-15T19:10:26.646Z,14.80
2022-09-15T19:12:55.452Z,14.90
2022-09-15T19:15:24.067Z,14.70
2022-09-15T19:17:52.468Z,14.70
2022-09-15T19:20:20.656Z,14.60
2022-09-15T19:22:51.250Z,14.50
2022-09-15T19:25:21.073Z,14.50
2022-09-15T19:27:49.170Z,14.60
2022-09-15T19:30:17.244Z,14.40
2022-09-15T19:32:45.286Z,14.30
2022-09-15T19:35:13.719Z,14.30
2022-09-15T19:37:43.278Z,14.20
2022-09-15T19:40:15.048Z,14.20
2022-09-15T19:42:45.693Z,14.10
2022-09-15T19:45:14.750Z,14.00
2022-09-15T19:47:43.332Z,14.00
2022-09-15T19:50:12.934Z,13.90
2022-09-15T19:52:41.231Z,13.80
2022-09-15T19:55:10.630Z,13.80
2022-09-15T19:57:42.109Z,13.70
2022-09-15T20:00:14.405Z,13.70
2022-09-15T20:02:42.505Z,13.70
2022-09-15T20:05:10.891Z,13.70
2022-09-15T20:07:38.965Z,13.70
2022-09-15T20:10:07.828Z,13.60
2022-09-15T20:12:36.045Z,13.50
2022-09-15T20:15:04.381Z,13.40
2022-09-15T20:17:34.096Z,13.40
2022-09-15T20:20:02.355Z,13.40
2022-09-15T20:22:30.508Z,13.30
2022-09-15T20:24:58.591Z,13.30
2022-09-15T20:27:26.814Z,13.20
2022-09-15T20:29:57.103Z,13.20
2022-09-15T20:32:28.447Z,13.20
2022-09-15T20:34:59.203Z,13.20
2022-09-15T20:37:27.384Z,13.30
2022-09-15T20:39:55.456Z,13.30
2022-09-15T20:42:23.705Z,13.30
2022-09-15T20:44:51.801Z,13.40
2022-09-15T20:47:19.882Z,13.30
2022-09-15T20:49:47.891Z,13.30
2022-09-15T20:52:17.353Z,13.30
2022-09-15T20:54:45.377Z,13.30
2022-09-15T20:57:13.440Z,13.30
2022-09-15T20:59:41.564Z,13.30
2022-09-15T21:02:10.492Z,13.30
2022-09-15T21:04:38.593Z,13.20
2022-09-15T21:07:06.672Z,13.20
2022-09-15T21:09:36.064Z,13.20
2022-09-15T21:12:04.536Z,13.10
2022-09-15T21:14:32.595Z,13.10
2022-09-15T21:17:01.157Z,13.00
2022-09-15T21:19:29.189Z,13.00
2022-09-15T21:21:58.521Z,13.00
2022-09-15T21:24:26.702Z,13.00
2022-09-15T21:27:13.653Z,13.00
2022-09-15T21:29:41.728Z,13.00
2022-09-15T21:32:09.954Z,13.00
2022-09-15T21:34:38.055Z,13.00
2022-09-15T21:37:06.167Z,13.00
2022-09-15T21:39:34.390Z,13.00
2022-09-15T21:42:05.269Z,13.00
2022-09-15T21:44:33.641Z,13.00
2022-09-15T21:47:01.699Z,12.90
2022-09-15T21:49:30.777Z,13.00
2022-09-15T21:51:58.826Z,13.00
2022-09-15T21:54:26.894Z,12.90
2022-09-15T21:56:55.411Z,12.90
2022-09-15T21:59:24.831Z,12.90
2022-09-15T22:01:54.351Z,12.90
2022-09-15T22:04:22.472Z,12.90
2022-09-15T22:06:50.866Z,12.90
2022-09-15T22:09:21.276Z,12.90
2022-09-15T22:11:49.779Z,12.90
2022-09-15T22:14:17.867Z,12.90
2022-09-15T22:16:47.440Z,12.90
2022-09-15T22:19:16.176Z,12.90
2022-09-15T22:21:44.403Z,12.90
2022-09-15T22:24:13.946Z,12.90
2022-09-15T22:26:43.523Z,12.90
2022-09-15T22:29:11.888Z,12.90
2022-09-15T22:31:40.938Z,13.00
2022-09-15T22:34:10.366Z,13.00
2022-09-15T22:36:38.458Z,13.00
2022-09-15T22:39:06.822Z,13.00
2022-09-15T22:41:37.005Z,13.00
2022-09-15T22:44:05.970Z,12.90
2022-09-15T22:46:34.169Z,12.90
2022-09-15T22:49:02.482Z,12.90
2022-09-15T22:51:31.904Z,12.90
2022-09-15T22:54:02.916Z,12.90
2022-09-15T22:56:31.050Z,12.90
2022-09-15T22:58:59.066Z,12.90
2022-09-15T23:01:28.961Z,12.90
2022-09-15T23:03:58.296Z,13.00
2022-09-15T23:06:28.330Z,12.90
2022-09-15T23:08:59.060Z,12.90
2022-09-15T23:11:29.003Z,12.90
2022-09-15T23:13:57.756Z,12.90
2022-09-15T23:16:28.572Z,12.90
2022-09-15T23:18:56.660Z,12.90
2022-09-15T23:21:25.254Z,12.90
2022-09-15T23:23:55.042Z,12.90
2022-09-15T23:26:25.656Z,12.90
2022-09-15T23:28:54.289Z,12.90
2022-09-15T23:31:22.763Z,12.80
2022-09-15T23:33:50.897Z,12.80
2022-09-15T23:36:20.497Z,12.80
2022-09-15T23:38:49.843Z,12.80
2022-09-15T23:41:18.601Z,12.80
2022-09-15T23:43:48.641Z,12.80
2022-09-15T23:46:17.482Z,12.70
2022-09-15T23:48:45.772Z,12.70
2022-09-15T23:51:13.963Z,12.70
2022-09-15T23:53:42.923Z,12.70
2022-09-15T23:56:11.022Z,12.70
2022-09-15T23:58:39.110Z,12.60
